Terminal Aerodrome Forecast
Issued by NWS Tulsa, OK

Home | Current Version | Previous Version | Text Only | Print | Product List | Glossary On
Versions: 1 2 3 4 5 6 7 8 9 10 11 12 13
149
FTUS44 KTSA 210520
TAFTUL
TAF
KTUL 210520Z 2106/2206 18007KT P6SM SCT250
     FM211500 19010KT P6SM SCT250
     FM211900 19011KT P6SM SCT050
     FM220100 17009KT P6SM SCT250=

USA.gov is the U.S. government's official web portal to all federal, state and local government web resources and services.